sensor_id;sensor_type;location;lat;lon;timestamp;P1;durP1;ratioP1;P2;durP2;ratioP2
5871;SDS011;2962;51.312;7.378;2023-02-15T00:01:39;29.85;;;16.95;;
5871;SDS011;2962;51.312;7.378;2023-02-15T00:04:06;30.92;;;15.93;;
5871;SDS011;2962;51.312;7.378;2023-02-15T00:06:32;27.92;;;15.57;;
5871;SDS011;2962;51.312;7.378;2023-02-15T00:08:58;29.47;;;16.83;;
5871;SDS011;2962;51.312;7.378;2023-02-15T00:11:24;29.00;;;16.70;;
5871;SDS011;2962;51.312;7.378;2023-02-15T00:14:08;30.52;;;18.27;;
5871;SDS011;2962;51.312;7.378;2023-02-15T00:16:36;36.95;;;18.08;;
5871;SDS011;2962;51.312;7.378;2023-02-15T00:19:02;33.45;;;17.88;;
5871;SDS011;2962;51.312;7.378;2023-02-15T00:21:28;32.10;;;17.03;;
5871;SDS011;2962;51.312;7.378;2023-02-15T00:23:55;30.80;;;16.30;;
5871;SDS011;2962;51.312;7.378;2023-02-15T00:26:21;28.75;;;16.27;;
5871;SDS011;2962;51.312;7.378;2023-02-15T00:28:46;30.33;;;18.00;;
5871;SDS011;2962;51.312;7.378;2023-02-15T00:31:11;32.80;;;17.30;;
5871;SDS011;2962;51.312;7.378;2023-02-15T00:33:38;31.83;;;17.80;;
5871;SDS011;2962;51.312;7.378;2023-02-15T00:36:05;33.78;;;17.13;;
5871;SDS011;2962;51.312;7.378;2023-02-15T00:38:32;33.95;;;17.95;;
5871;SDS011;2962;51.312;7.378;2023-02-15T00:40:58;30.60;;;17.67;;
5871;SDS011;2962;51.312;7.378;2023-02-15T00:43:25;33.35;;;16.95;;
5871;SDS011;2962;51.312;7.378;2023-02-15T00:45:52;29.58;;;18.00;;
5871;SDS011;2962;51.312;7.378;2023-02-15T00:48:17;29.00;;;17.50;;
5871;SDS011;2962;51.312;7.378;2023-02-15T00:50:44;27.52;;;16.67;;
5871;SDS011;2962;51.312;7.378;2023-02-15T00:53:11;32.70;;;16.80;;
5871;SDS011;2962;51.312;7.378;2023-02-15T00:55:37;36.40;;;16.95;;
5871;SDS011;2962;51.312;7.378;2023-02-15T00:58:04;28.95;;;16.85;;
5871;SDS011;2962;51.312;7.378;2023-02-15T01:00:30;31.43;;;17.40;;
5871;SDS011;2962;51.312;7.378;2023-02-15T01:02:55;30.03;;;17.27;;
5871;SDS011;2962;51.312;7.378;2023-02-15T01:05:20;32.47;;;18.77;;
5871;SDS011;2962;51.312;7.378;2023-02-15T01:07:45;32.60;;;17.40;;
5871;SDS011;2962;51.312;7.378;2023-02-15T01:10:11;28.83;;;16.10;;
5871;SDS011;2962;51.312;7.378;2023-02-15T01:12:36;29.83;;;16.70;;
5871;SDS011;2962;51.312;7.378;2023-02-15T01:15:01;37.20;;;17.00;;
5871;SDS011;2962;51.312;7.378;2023-02-15T01:17:26;31.50;;;17.40;;
5871;SDS011;2962;51.312;7.378;2023-02-15T01:19:52;35.03;;;18.87;;
5871;SDS011;2962;51.312;7.378;2023-02-15T01:22:18;32.67;;;17.33;;
5871;SDS011;2962;51.312;7.378;2023-02-15T01:24:44;40.63;;;19.27;;
5871;SDS011;2962;51.312;7.378;2023-02-15T01:27:09;32.33;;;18.43;;
5871;SDS011;2962;51.312;7.378;2023-02-15T01:29:34;31.73;;;18.60;;
5871;SDS011;2962;51.312;7.378;2023-02-15T01:32:00;41.47;;;19.57;;
5871;SDS011;2962;51.312;7.378;2023-02-15T01:34:25;34.03;;;18.77;;
5871;SDS011;2962;51.312;7.378;2023-02-15T01:36:50;40.30;;;19.40;;
5871;SDS011;2962;51.312;7.378;2023-02-15T01:39:15;35.00;;;17.90;;
5871;SDS011;2962;51.312;7.378;2023-02-15T01:41:41;33.97;;;18.60;;
5871;SDS011;2962;51.312;7.378;2023-02-15T01:47:12;33.15;;;17.92;;
5871;SDS011;2962;51.312;7.378;2023-02-15T01:49:48;31.55;;;16.77;;
5871;SDS011;2962;51.312;7.378;2023-02-15T01:52:23;34.97;;;17.92;;
5871;SDS011;2962;51.312;7.378;2023-02-15T01:54:48;32.77;;;18.47;;
5871;SDS011;2962;51.312;7.378;2023-02-15T01:57:16;31.10;;;17.67;;
5871;SDS011;2962;51.312;7.378;2023-02-15T01:59:46;31.15;;;18.48;;
5871;SDS011;2962;51.312;7.378;2023-02-15T02:02:15;29.35;;;16.00;;
5871;SDS011;2962;51.312;7.378;2023-02-15T02:04:47;32.40;;;18.42;;
5871;SDS011;2962;51.312;7.378;2023-02-15T02:07:14;36.20;;;18.67;;
5871;SDS011;2962;51.312;7.378;2023-02-15T02:09:42;31.50;;;17.77;;
5871;SDS011;2962;51.312;7.378;2023-02-15T02:12:08;37.70;;;18.67;;
5871;SDS011;2962;51.312;7.378;2023-02-15T02:14:34;33.65;;;17.92;;
5871;SDS011;2962;51.312;7.378;2023-02-15T02:17:04;33.72;;;18.25;;
5871;SDS011;2962;51.312;7.378;2023-02-15T02:22:24;34.47;;;18.70;;
5871;SDS011;2962;51.312;7.378;2023-02-15T02:25:18;29.55;;;17.42;;
5871;SDS011;2962;51.312;7.378;2023-02-15T02:27:49;31.55;;;18.65;;
5871;SDS011;2962;51.312;7.378;2023-02-15T02:44:12;33.60;;;18.88;;
5871;SDS011;2962;51.312;7.378;2023-02-15T02:46:57;39.78;;;19.95;;
5871;SDS011;2962;51.312;7.378;2023-02-15T02:49:31;33.72;;;18.95;;
5871;SDS011;2962;51.312;7.378;2023-02-15T02:52:02;35.42;;;19.40;;
5871;SDS011;2962;51.312;7.378;2023-02-15T02:54:30;29.17;;;17.75;;
5871;SDS011;2962;51.312;7.378;2023-02-15T02:56:59;33.13;;;18.38;;
5871;SDS011;2962;51.312;7.378;2023-02-15T02:59:33;42.97;;;19.42;;
5871;SDS011;2962;51.312;7.378;2023-02-15T03:02:09;39.05;;;19.70;;
5871;SDS011;2962;51.312;7.378;2023-02-15T03:04:41;36.50;;;19.17;;
5871;SDS011;2962;51.312;7.378;2023-02-15T03:07:11;37.80;;;19.63;;
5871;SDS011;2962;51.312;7.378;2023-02-15T03:09:44;38.08;;;20.55;;
5871;SDS011;2962;51.312;7.378;2023-02-15T03:15:00;36.53;;;20.20;;
5871;SDS011;2962;51.312;7.378;2023-02-15T03:17:32;34.05;;;19.75;;
5871;SDS011;2962;51.312;7.378;2023-02-15T03:20:01;33.45;;;18.60;;
5871;SDS011;2962;51.312;7.378;2023-02-15T03:22:34;37.88;;;20.10;;
5871;SDS011;2962;51.312;7.378;2023-02-15T03:25:21;33.70;;;18.67;;
5871;SDS011;2962;51.312;7.378;2023-02-15T03:28:00;37.33;;;18.80;;
5871;SDS011;2962;51.312;7.378;2023-02-15T03:30:31;32.92;;;18.55;;
5871;SDS011;2962;51.312;7.378;2023-02-15T03:32:59;39.38;;;19.92;;
5871;SDS011;2962;51.312;7.378;2023-02-15T03:35:25;35.50;;;18.50;;
5871;SDS011;2962;51.312;7.378;2023-02-15T03:37:57;34.50;;;18.15;;
5871;SDS011;2962;51.312;7.378;2023-02-15T03:40:29;37.80;;;18.67;;
5871;SDS011;2962;51.312;7.378;2023-02-15T03:43:31;39.95;;;19.58;;
5871;SDS011;2962;51.312;7.378;2023-02-15T03:46:05;31.00;;;17.48;;
5871;SDS011;2962;51.312;7.378;2023-02-15T03:48:39;40.42;;;20.95;;
5871;SDS011;2962;51.312;7.378;2023-02-15T03:51:10;32.15;;;16.90;;
5871;SDS011;2962;51.312;7.378;2023-02-15T03:54:09;39.33;;;19.23;;
5871;SDS011;2962;51.312;7.378;2023-02-15T03:57:04;33.95;;;19.40;;
5871;SDS011;2962;51.312;7.378;2023-02-15T03:59:51;34.03;;;18.70;;
5871;SDS011;2962;51.312;7.378;2023-02-15T04:02:40;36.47;;;20.08;;
5871;SDS011;2962;51.312;7.378;2023-02-15T04:05:18;36.20;;;18.40;;
5871;SDS011;2962;51.312;7.378;2023-02-15T04:07:43;39.63;;;20.27;;
5871;SDS011;2962;51.312;7.378;2023-02-15T04:10:08;37.13;;;17.90;;
5871;SDS011;2962;51.312;7.378;2023-02-15T04:12:52;33.05;;;17.85;;
5871;SDS011;2962;51.312;7.378;2023-02-15T04:15:18;35.27;;;19.77;;
5871;SDS011;2962;51.312;7.378;2023-02-15T04:18:02;36.92;;;19.15;;
5871;SDS011;2962;51.312;7.378;2023-02-15T04:20:28;34.10;;;19.70;;
5871;SDS011;2962;51.312;7.378;2023-02-15T04:23:12;34.65;;;18.73;;
5871;SDS011;2962;51.312;7.378;2023-02-15T04:25:55;32.88;;;17.73;;
5871;SDS011;2962;51.312;7.378;2023-02-15T04:28:21;34.80;;;19.20;;
5871;SDS011;2962;51.312;7.378;2023-02-15T04:30:46;31.27;;;18.50;;
5871;SDS011;2962;51.312;7.378;2023-02-15T04:33:11;36.20;;;17.87;;
5871;SDS011;2962;51.312;7.378;2023-02-15T04:35:37;34.57;;;18.10;;
5871;SDS011;2962;51.312;7.378;2023-02-15T04:38:02;33.73;;;18.10;;
5871;SDS011;2962;51.312;7.378;2023-02-15T04:40:27;34.63;;;18.50;;
5871;SDS011;2962;51.312;7.378;2023-02-15T04:42:52;32.03;;;17.23;;
5871;SDS011;2962;51.312;7.378;2023-02-15T04:45:18;33.07;;;19.00;;
5871;SDS011;2962;51.312;7.378;2023-02-15T04:47:43;33.57;;;18.10;;
5871;SDS011;2962;51.312;7.378;2023-02-15T04:50:09;37.97;;;18.30;;
5871;SDS011;2962;51.312;7.378;2023-02-15T04:52:35;32.23;;;18.33;;
5871;SDS011;2962;51.312;7.378;2023-02-15T04:55:01;34.33;;;17.98;;
5871;SDS011;2962;51.312;7.378;2023-02-15T04:57:26;34.97;;;17.60;;
5871;SDS011;2962;51.312;7.378;2023-02-15T04:59:51;34.43;;;18.23;;
5871;SDS011;2962;51.312;7.378;2023-02-15T05:02:16;32.80;;;17.43;;
5871;SDS011;2962;51.312;7.378;2023-02-15T05:04:42;31.63;;;17.67;;
5871;SDS011;2962;51.312;7.378;2023-02-15T05:07:07;34.40;;;17.27;;
5871;SDS011;2962;51.312;7.378;2023-02-15T05:09:32;33.60;;;17.97;;
5871;SDS011;2962;51.312;7.378;2023-02-15T05:11:58;31.90;;;17.70;;
5871;SDS011;2962;51.312;7.378;2023-02-15T05:14:23;27.20;;;15.43;;
5871;SDS011;2962;51.312;7.378;2023-02-15T05:16:48;32.10;;;17.10;;
5871;SDS011;2962;51.312;7.378;2023-02-15T05:19:13;33.40;;;16.87;;
5871;SDS011;2962;51.312;7.378;2023-02-15T05:21:39;27.90;;;15.70;;
5871;SDS011;2962;51.312;7.378;2023-02-15T05:24:04;30.27;;;16.40;;
5871;SDS011;2962;51.312;7.378;2023-02-15T05:26:49;30.45;;;16.58;;
5871;SDS011;2962;51.312;7.378;2023-02-15T05:29:33;32.28;;;16.48;;
5871;SDS011;2962;51.312;7.378;2023-02-15T05:31:59;30.27;;;16.93;;
5871;SDS011;2962;51.312;7.378;2023-02-15T05:34:24;30.47;;;16.80;;
5871;SDS011;2962;51.312;7.378;2023-02-15T05:36:49;32.30;;;17.47;;
5871;SDS011;2962;51.312;7.378;2023-02-15T05:39:14;26.83;;;16.00;;
5871;SDS011;2962;51.312;7.378;2023-02-15T05:41:40;33.60;;;16.47;;
5871;SDS011;2962;51.312;7.378;2023-02-15T05:44:05;28.47;;;16.60;;
5871;SDS011;2962;51.312;7.378;2023-02-15T05:46:30;33.23;;;17.43;;
5871;SDS011;2962;51.312;7.378;2023-02-15T05:48:55;32.67;;;17.83;;
5871;SDS011;2962;51.312;7.378;2023-02-15T05:51:21;33.47;;;16.10;;
5871;SDS011;2962;51.312;7.378;2023-02-15T05:53:46;31.60;;;15.73;;
5871;SDS011;2962;51.312;7.378;2023-02-15T05:56:11;28.00;;;16.30;;
5871;SDS011;2962;51.312;7.378;2023-02-15T05:58:40;27.53;;;14.83;;
5871;SDS011;2962;51.312;7.378;2023-02-15T06:01:13;26.75;;;15.60;;
5871;SDS011;2962;51.312;7.378;2023-02-15T06:03:40;29.77;;;15.32;;
5871;SDS011;2962;51.312;7.378;2023-02-15T06:06:06;31.33;;;15.90;;
5871;SDS011;2962;51.312;7.378;2023-02-15T06:08:31;28.57;;;15.97;;
5871;SDS011;2962;51.312;7.378;2023-02-15T06:10:57;26.45;;;15.65;;
5871;SDS011;2962;51.312;7.378;2023-02-15T06:13:22;30.00;;;14.73;;
5871;SDS011;2962;51.312;7.378;2023-02-15T06:15:48;32.00;;;16.40;;
5871;SDS011;2962;51.312;7.378;2023-02-15T06:18:13;29.93;;;15.97;;
5871;SDS011;2962;51.312;7.378;2023-02-15T06:20:38;28.43;;;16.03;;
5871;SDS011;2962;51.312;7.378;2023-02-15T06:23:04;29.13;;;14.77;;
5871;SDS011;2962;51.312;7.378;2023-02-15T06:25:29;33.70;;;15.70;;
5871;SDS011;2962;51.312;7.378;2023-02-15T06:27:54;32.13;;;15.17;;
5871;SDS011;2962;51.312;7.378;2023-02-15T06:30:19;23.63;;;13.93;;
5871;SDS011;2962;51.312;7.378;2023-02-15T06:32:45;35.90;;;16.50;;
5871;SDS011;2962;51.312;7.378;2023-02-15T06:35:10;30.73;;;16.50;;
5871;SDS011;2962;51.312;7.378;2023-02-15T06:37:36;29.40;;;16.03;;
5871;SDS011;2962;51.312;7.378;2023-02-15T06:40:02;28.90;;;14.50;;
5871;SDS011;2962;51.312;7.378;2023-02-15T06:42:29;29.63;;;16.05;;
5871;SDS011;2962;51.312;7.378;2023-02-15T06:44:54;25.37;;;14.10;;
5871;SDS011;2962;51.312;7.378;2023-02-15T06:47:19;28.80;;;15.27;;
5871;SDS011;2962;51.312;7.378;2023-02-15T06:49:45;29.93;;;14.40;;
5871;SDS011;2962;51.312;7.378;2023-02-15T06:52:10;28.67;;;15.27;;
5871;SDS011;2962;51.312;7.378;2023-02-15T06:54:35;33.90;;;15.93;;
5871;SDS011;2962;51.312;7.378;2023-02-15T06:57:00;30.73;;;15.30;;
5871;SDS011;2962;51.312;7.378;2023-02-15T06:59:26;29.37;;;14.70;;
5871;SDS011;2962;51.312;7.378;2023-02-15T07:01:51;27.27;;;15.50;;
5871;SDS011;2962;51.312;7.378;2023-02-15T07:04:16;30.70;;;15.63;;
5871;SDS011;2962;51.312;7.378;2023-02-15T07:06:41;26.87;;;14.23;;
5871;SDS011;2962;51.312;7.378;2023-02-15T07:09:07;30.53;;;14.90;;
5871;SDS011;2962;51.312;7.378;2023-02-15T07:11:32;26.33;;;14.60;;
5871;SDS011;2962;51.312;7.378;2023-02-15T07:14:16;23.40;;;14.68;;
5871;SDS011;2962;51.312;7.378;2023-02-15T07:16:41;30.83;;;15.77;;
5871;SDS011;2962;51.312;7.378;2023-02-15T07:19:07;26.73;;;13.67;;
5871;SDS011;2962;51.312;7.378;2023-02-15T07:21:33;26.60;;;15.00;;
5871;SDS011;2962;51.312;7.378;2023-02-15T07:23:59;30.63;;;15.75;;
5871;SDS011;2962;51.312;7.378;2023-02-15T07:26:25;21.80;;;14.73;;
5871;SDS011;2962;51.312;7.378;2023-02-15T07:28:50;31.90;;;14.47;;
5871;SDS011;2962;51.312;7.378;2023-02-15T07:31:16;25.70;;;14.50;;
5871;SDS011;2962;51.312;7.378;2023-02-15T07:33:41;24.57;;;13.60;;
5871;SDS011;2962;51.312;7.378;2023-02-15T07:36:07;26.63;;;15.40;;
5871;SDS011;2962;51.312;7.378;2023-02-15T07:38:38;25.05;;;14.18;;
5871;SDS011;2962;51.312;7.378;2023-02-15T07:41:05;26.98;;;13.50;;
5871;SDS011;2962;51.312;7.378;2023-02-15T07:43:33;29.50;;;13.50;;
5871;SDS011;2962;51.312;7.378;2023-02-15T07:46:00;25.15;;;14.05;;
5871;SDS011;2962;51.312;7.378;2023-02-15T07:48:27;24.50;;;13.20;;
5871;SDS011;2962;51.312;7.378;2023-02-15T07:50:52;21.43;;;13.13;;
5871;SDS011;2962;51.312;7.378;2023-02-15T07:53:18;26.77;;;12.37;;
5871;SDS011;2962;51.312;7.378;2023-02-15T07:55:43;21.43;;;13.30;;
5871;SDS011;2962;51.312;7.378;2023-02-15T07:58:08;23.20;;;12.73;;
5871;SDS011;2962;51.312;7.378;2023-02-15T08:00:34;24.10;;;13.60;;
5871;SDS011;2962;51.312;7.378;2023-02-15T08:03:19;25.58;;;12.85;;
5871;SDS011;2962;51.312;7.378;2023-02-15T08:05:44;18.83;;;11.50;;
5871;SDS011;2962;51.312;7.378;2023-02-15T08:08:10;23.27;;;13.47;;
5871;SDS011;2962;51.312;7.378;2023-02-15T08:11:01;19.33;;;12.80;;
5871;SDS011;2962;51.312;7.378;2023-02-15T08:13:48;20.85;;;11.77;;
5871;SDS011;2962;51.312;7.378;2023-02-15T08:18:49;20.75;;;11.95;;
5871;SDS011;2962;51.312;7.378;2023-02-15T08:21:14;22.87;;;11.63;;
5871;SDS011;2962;51.312;7.378;2023-02-15T08:23:40;21.17;;;13.20;;
5871;SDS011;2962;51.312;7.378;2023-02-15T08:26:05;23.10;;;11.93;;
5871;SDS011;2962;51.312;7.378;2023-02-15T08:28:31;22.80;;;12.90;;
5871;SDS011;2962;51.312;7.378;2023-02-15T08:31:03;19.30;;;12.13;;
5871;SDS011;2962;51.312;7.378;2023-02-15T08:33:29;21.95;;;13.05;;
5871;SDS011;2962;51.312;7.378;2023-02-15T08:35:55;23.37;;;11.83;;
5871;SDS011;2962;51.312;7.378;2023-02-15T08:38:20;19.70;;;11.60;;
5871;SDS011;2962;51.312;7.378;2023-02-15T08:40:46;19.87;;;11.80;;
5871;SDS011;2962;51.312;7.378;2023-02-15T08:43:11;27.53;;;11.97;;
5871;SDS011;2962;51.312;7.378;2023-02-15T08:45:36;19.97;;;11.70;;
5871;SDS011;2962;51.312;7.378;2023-02-15T08:48:01;21.23;;;12.67;;
5871;SDS011;2962;51.312;7.378;2023-02-15T08:50:27;17.50;;;12.03;;
5871;SDS011;2962;51.312;7.378;2023-02-15T08:52:52;20.10;;;11.53;;
5871;SDS011;2962;51.312;7.378;2023-02-15T08:55:17;17.20;;;11.00;;
5871;SDS011;2962;51.312;7.378;2023-02-15T08:57:43;19.47;;;10.87;;
5871;SDS011;2962;51.312;7.378;2023-02-15T09:00:10;15.73;;;10.20;;
5871;SDS011;2962;51.312;7.378;2023-02-15T09:02:36;15.33;;;11.00;;
5871;SDS011;2962;51.312;7.378;2023-02-15T09:05:02;18.40;;;11.47;;
5871;SDS011;2962;51.312;7.378;2023-02-15T09:07:27;17.43;;;11.03;;
5871;SDS011;2962;51.312;7.378;2023-02-15T09:09:53;19.90;;;11.03;;
5871;SDS011;2962;51.312;7.378;2023-02-15T09:12:19;19.60;;;11.80;;
5871;SDS011;2962;51.312;7.378;2023-02-15T09:14:44;15.30;;;10.90;;
5871;SDS011;2962;51.312;7.378;2023-02-15T09:17:09;16.10;;;10.73;;
5871;SDS011;2962;51.312;7.378;2023-02-15T09:19:35;19.10;;;10.80;;
5871;SDS011;2962;51.312;7.378;2023-02-15T09:22:00;17.80;;;11.10;;
5871;SDS011;2962;51.312;7.378;2023-02-15T09:24:25;21.43;;;11.40;;
5871;SDS011;2962;51.312;7.378;2023-02-15T09:26:51;19.00;;;11.00;;
5871;SDS011;2962;51.312;7.378;2023-02-15T09:29:16;16.57;;;10.60;;
5871;SDS011;2962;51.312;7.378;2023-02-15T09:31:44;15.67;;;10.43;;
5871;SDS011;2962;51.312;7.378;2023-02-15T09:34:11;15.50;;;10.43;;
5871;SDS011;2962;51.312;7.378;2023-02-15T09:36:38;20.13;;;11.37;;
5871;SDS011;2962;51.312;7.378;2023-02-15T10:00:31;13.60;;;10.23;;
5871;SDS011;2962;51.312;7.378;2023-02-15T10:05:44;12.20;;;9.20;;
5871;SDS011;2962;51.312;7.378;2023-02-15T10:10:54;17.97;;;9.67;;
5871;SDS011;2962;51.312;7.378;2023-02-15T10:24:39;13.40;;;8.60;;
5871;SDS011;2962;51.312;7.378;2023-02-15T10:27:20;12.70;;;9.23;;
5871;SDS011;2962;51.312;7.378;2023-02-15T10:29:50;15.40;;;9.03;;
5871;SDS011;2962;51.312;7.378;2023-02-15T10:32:27;10.97;;;8.30;;
5871;SDS011;2962;51.312;7.378;2023-02-15T10:37:56;13.50;;;8.83;;
5871;SDS011;2962;51.312;7.378;2023-02-15T10:40:40;13.77;;;9.93;;
5871;SDS011;2962;51.312;7.378;2023-02-15T10:48:58;11.10;;;8.97;;
5871;SDS011;2962;51.312;7.378;2023-02-15T10:51:36;15.43;;;9.83;;
5871;SDS011;2962;51.312;7.378;2023-02-15T10:54:57;11.20;;;8.73;;
5871;SDS011;2962;51.312;7.378;2023-02-15T11:00:17;12.27;;;8.67;;
5871;SDS011;2962;51.312;7.378;2023-02-15T11:08:06;13.37;;;8.90;;
5871;SDS011;2962;51.312;7.378;2023-02-15T11:11:36;13.50;;;9.10;;
5871;SDS011;2962;51.312;7.378;2023-02-15T11:13:34;12.73;;;9.33;;
5871;SDS011;2962;51.312;7.378;2023-02-15T11:16:05;10.00;;;8.60;;
5871;SDS011;2962;51.312;7.378;2023-02-15T11:18:38;13.20;;;9.47;;
5871;SDS011;2962;51.312;7.378;2023-02-15T11:23:53;10.40;;;8.40;;
5871;SDS011;2962;51.312;7.378;2023-02-15T11:26:43;10.77;;;8.30;;
5871;SDS011;2962;51.312;7.378;2023-02-15T11:29:25;9.17;;;7.87;;
5871;SDS011;2962;51.312;7.378;2023-02-15T11:31:57;9.90;;;8.10;;
5871;SDS011;2962;51.312;7.378;2023-02-15T11:34:27;12.63;;;8.20;;
5871;SDS011;2962;51.312;7.378;2023-02-15T11:36:58;13.60;;;8.33;;
5871;SDS011;2962;51.312;7.378;2023-02-15T11:39:36;9.30;;;8.37;;
5871;SDS011;2962;51.312;7.378;2023-02-15T11:42:03;9.80;;;8.30;;
5871;SDS011;2962;51.312;7.378;2023-02-15T11:44:35;16.13;;;8.40;;
5871;SDS011;2962;51.312;7.378;2023-02-15T11:47:08;16.03;;;9.23;;
5871;SDS011;2962;51.312;7.378;2023-02-15T11:49:38;11.47;;;9.10;;
5871;SDS011;2962;51.312;7.378;2023-02-15T11:52:07;14.20;;;9.07;;
5871;SDS011;2962;51.312;7.378;2023-02-15T11:54:37;11.70;;;8.70;;
5871;SDS011;2962;51.312;7.378;2023-02-15T11:57:40;11.37;;;8.63;;
5871;SDS011;2962;51.312;7.378;2023-02-15T12:00:09;11.73;;;9.07;;
5871;SDS011;2962;51.312;7.378;2023-02-15T12:02:39;12.27;;;8.60;;
5871;SDS011;2962;51.312;7.378;2023-02-15T12:05:11;14.73;;;9.80;;
5871;SDS011;2962;51.312;7.378;2023-02-15T12:07:42;14.40;;;9.83;;
5871;SDS011;2962;51.312;7.378;2023-02-15T12:10:19;17.97;;;10.87;;
5871;SDS011;2962;51.312;7.378;2023-02-15T12:15:34;13.60;;;9.50;;
5871;SDS011;2962;51.312;7.378;2023-02-15T12:18:00;11.67;;;8.50;;
5871;SDS011;2962;51.312;7.378;2023-02-15T12:20:30;10.43;;;9.07;;
5871;SDS011;2962;51.312;7.378;2023-02-15T12:23:04;14.50;;;9.57;;
5871;SDS011;2962;51.312;7.378;2023-02-15T12:25:37;11.70;;;9.40;;
5871;SDS011;2962;51.312;7.378;2023-02-15T12:28:18;12.23;;;8.40;;
5871;SDS011;2962;51.312;7.378;2023-02-15T12:30:45;11.83;;;8.80;;
5871;SDS011;2962;51.312;7.378;2023-02-15T12:33:15;10.20;;;8.40;;
5871;SDS011;2962;51.312;7.378;2023-02-15T12:35:57;11.73;;;8.60;;
5871;SDS011;2962;51.312;7.378;2023-02-15T12:38:26;11.27;;;8.83;;
5871;SDS011;2962;51.312;7.378;2023-02-15T12:41:00;9.70;;;8.70;;
5871;SDS011;2962;51.312;7.378;2023-02-15T12:43:37;10.20;;;8.73;;
5871;SDS011;2962;51.312;7.378;2023-02-15T12:46:20;13.53;;;10.50;;
5871;SDS011;2962;51.312;7.378;2023-02-15T12:49:04;12.73;;;9.00;;
5871;SDS011;2962;51.312;7.378;2023-02-15T12:51:46;11.77;;;8.97;;
5871;SDS011;2962;51.312;7.378;2023-02-15T12:56:49;9.60;;;7.57;;
5871;SDS011;2962;51.312;7.378;2023-02-15T12:59:14;13.17;;;9.20;;
5871;SDS011;2962;51.312;7.378;2023-02-15T13:01:45;9.30;;;8.30;;
5871;SDS011;2962;51.312;7.378;2023-02-15T13:06:57;11.00;;;8.87;;
5871;SDS011;2962;51.312;7.378;2023-02-15T13:11:55;12.43;;;8.63;;
5871;SDS011;2962;51.312;7.378;2023-02-15T13:14:25;14.00;;;9.60;;
5871;SDS011;2962;51.312;7.378;2023-02-15T13:16:56;12.77;;;8.90;;
5871;SDS011;2962;51.312;7.378;2023-02-15T13:19:33;15.60;;;9.53;;
5871;SDS011;2962;51.312;7.378;2023-02-15T13:22:02;15.10;;;9.53;;
5871;SDS011;2962;51.312;7.378;2023-02-15T13:24:36;15.50;;;8.93;;
5871;SDS011;2962;51.312;7.378;2023-02-15T13:27:08;15.60;;;9.70;;
5871;SDS011;2962;51.312;7.378;2023-02-15T13:29:38;14.67;;;9.27;;
5871;SDS011;2962;51.312;7.378;2023-02-15T13:32:10;16.60;;;10.40;;
5871;SDS011;2962;51.312;7.378;2023-02-15T13:34:46;14.20;;;9.93;;
5871;SDS011;2962;51.312;7.378;2023-02-15T13:37:19;13.80;;;10.23;;
5871;SDS011;2962;51.312;7.378;2023-02-15T13:39:58;16.40;;;9.97;;
5871;SDS011;2962;51.312;7.378;2023-02-15T13:42:34;15.40;;;10.13;;
5871;SDS011;2962;51.312;7.378;2023-02-15T13:47:57;12.80;;;10.33;;
5871;SDS011;2962;51.312;7.378;2023-02-15T13:53:27;15.00;;;9.90;;
5871;SDS011;2962;51.312;7.378;2023-02-15T13:56:12;12.27;;;10.40;;
5871;SDS011;2962;51.312;7.378;2023-02-15T13:59:02;11.73;;;10.07;;
5871;SDS011;2962;51.312;7.378;2023-02-15T14:01:48;13.30;;;10.30;;
5871;SDS011;2962;51.312;7.378;2023-02-15T14:07:24;15.17;;;9.87;;
5871;SDS011;2962;51.312;7.378;2023-02-15T14:16:08;10.53;;;9.43;;
5871;SDS011;2962;51.312;7.378;2023-02-15T14:21:34;12.80;;;10.20;;
5871;SDS011;2962;51.312;7.378;2023-02-15T14:26:56;14.97;;;9.80;;
5871;SDS011;2962;51.312;7.378;2023-02-15T14:29:47;13.20;;;10.80;;
5871;SDS011;2962;51.312;7.378;2023-02-15T14:34:48;10.83;;;9.67;;
5871;SDS011;2962;51.312;7.378;2023-02-15T14:37:19;17.20;;;10.63;;
5871;SDS011;2962;51.312;7.378;2023-02-15T14:42:48;12.23;;;10.27;;
5871;SDS011;2962;51.312;7.378;2023-02-15T14:45:20;12.77;;;10.10;;
5871;SDS011;2962;51.312;7.378;2023-02-15T14:48:16;12.03;;;10.30;;
5871;SDS011;2962;51.312;7.378;2023-02-15T14:50:50;13.60;;;9.53;;
5871;SDS011;2962;51.312;7.378;2023-02-15T14:53:32;13.63;;;9.63;;
5871;SDS011;2962;51.312;7.378;2023-02-15T14:56:13;12.60;;;8.50;;
5871;SDS011;2962;51.312;7.378;2023-02-15T15:01:15;14.10;;;10.50;;
5871;SDS011;2962;51.312;7.378;2023-02-15T15:03:49;14.13;;;9.77;;
5871;SDS011;2962;51.312;7.378;2023-02-15T15:06:29;14.73;;;9.80;;
5871;SDS011;2962;51.312;7.378;2023-02-15T15:09:13;15.73;;;10.70;;
5871;SDS011;2962;51.312;7.378;2023-02-15T15:11:46;11.93;;;9.13;;
5871;SDS011;2962;51.312;7.378;2023-02-15T15:14:58;17.57;;;10.03;;
5871;SDS011;2962;51.312;7.378;2023-02-15T15:17:10;16.83;;;10.63;;
5871;SDS011;2962;51.312;7.378;2023-02-15T15:22:21;14.80;;;10.40;;
5871;SDS011;2962;51.312;7.378;2023-02-15T15:24:51;12.17;;;10.20;;
5871;SDS011;2962;51.312;7.378;2023-02-15T15:38:28;16.00;;;10.17;;
5871;SDS011;2962;51.312;7.378;2023-02-15T15:46:45;13.63;;;10.10;;
5871;SDS011;2962;51.312;7.378;2023-02-15T15:49:34;16.03;;;10.27;;
5871;SDS011;2962;51.312;7.378;2023-02-15T15:52:08;15.20;;;9.50;;
5871;SDS011;2962;51.312;7.378;2023-02-15T15:54:39;14.77;;;9.80;;
5871;SDS011;2962;51.312;7.378;2023-02-15T15:57:06;19.20;;;10.30;;
5871;SDS011;2962;51.312;7.378;2023-02-15T15:59:44;16.83;;;10.67;;
5871;SDS011;2962;51.312;7.378;2023-02-15T16:02:11;12.70;;;9.73;;
5871;SDS011;2962;51.312;7.378;2023-02-15T16:04:41;12.83;;;9.80;;
5871;SDS011;2962;51.312;7.378;2023-02-15T16:07:14;16.43;;;9.67;;
5871;SDS011;2962;51.312;7.378;2023-02-15T16:09:39;17.17;;;9.87;;
5871;SDS011;2962;51.312;7.378;2023-02-15T16:12:04;15.57;;;9.50;;
5871;SDS011;2962;51.312;7.378;2023-02-15T16:14:40;18.08;;;10.90;;
5871;SDS011;2962;51.312;7.378;2023-02-15T16:17:12;13.30;;;9.20;;
5871;SDS011;2962;51.312;7.378;2023-02-15T16:19:42;15.67;;;10.73;;
5871;SDS011;2962;51.312;7.378;2023-02-15T16:22:16;18.10;;;10.20;;
5871;SDS011;2962;51.312;7.378;2023-02-15T16:27:44;15.00;;;10.10;;
5871;SDS011;2962;51.312;7.378;2023-02-15T16:30:18;15.17;;;10.20;;
5871;SDS011;2962;51.312;7.378;2023-02-15T16:32:54;19.03;;;10.53;;
5871;SDS011;2962;51.312;7.378;2023-02-15T16:35:27;11.70;;;9.47;;
5871;SDS011;2962;51.312;7.378;2023-02-15T16:37:52;16.67;;;10.67;;
5871;SDS011;2962;51.312;7.378;2023-02-15T16:42:50;13.30;;;10.53;;
5871;SDS011;2962;51.312;7.378;2023-02-15T16:45:18;17.57;;;9.50;;
5871;SDS011;2962;51.312;7.378;2023-02-15T16:47:48;23.90;;;11.43;;
5871;SDS011;2962;51.312;7.378;2023-02-15T16:50:20;14.00;;;9.83;;
5871;SDS011;2962;51.312;7.378;2023-02-15T16:52:47;17.10;;;10.63;;
5871;SDS011;2962;51.312;7.378;2023-02-15T16:55:20;16.53;;;10.37;;
5871;SDS011;2962;51.312;7.378;2023-02-15T16:57:50;17.90;;;10.13;;
5871;SDS011;2962;51.312;7.378;2023-02-15T17:00:21;12.37;;;9.47;;
5871;SDS011;2962;51.312;7.378;2023-02-15T17:03:00;16.20;;;10.90;;
5871;SDS011;2962;51.312;7.378;2023-02-15T17:05:33;17.83;;;10.30;;
5871;SDS011;2962;51.312;7.378;2023-02-15T17:08:13;14.30;;;9.90;;
5871;SDS011;2962;51.312;7.378;2023-02-15T17:10:45;17.27;;;10.80;;
5871;SDS011;2962;51.312;7.378;2023-02-15T17:13:27;13.87;;;10.20;;
5871;SDS011;2962;51.312;7.378;2023-02-15T17:18:24;16.80;;;10.87;;
5871;SDS011;2962;51.312;7.378;2023-02-15T17:20:53;14.73;;;9.80;;
5871;SDS011;2962;51.312;7.378;2023-02-15T17:23:34;16.53;;;10.23;;
5871;SDS011;2962;51.312;7.378;2023-02-15T17:26:13;15.00;;;10.03;;
5871;SDS011;2962;51.312;7.378;2023-02-15T17:28:45;14.37;;;10.23;;
5871;SDS011;2962;51.312;7.378;2023-02-15T17:31:12;18.43;;;9.87;;
5871;SDS011;2962;51.312;7.378;2023-02-15T17:33:41;17.53;;;10.43;;
5871;SDS011;2962;51.312;7.378;2023-02-15T17:38:33;17.87;;;11.30;;
5871;SDS011;2962;51.312;7.378;2023-02-15T17:40:59;16.80;;;11.57;;
5871;SDS011;2962;51.312;7.378;2023-02-15T17:43:25;18.17;;;11.63;;